sensor_id;sensor_type;location;lat;lon;timestamp;P1;durP1;ratioP1;P2;durP2;ratioP2
17596;SDS011;8917;50.942;6.946;2023-06-14T00:01:14;6.50;;;5.50;;
17596;SDS011;8917;50.942;6.946;2023-06-14T00:03:42;6.03;;;5.43;;
17596;SDS011;8917;50.942;6.946;2023-06-14T00:06:12;6.80;;;5.72;;
17596;SDS011;8917;50.942;6.946;2023-06-14T00:08:39;6.10;;;5.43;;
17596;SDS011;8917;50.942;6.946;2023-06-14T00:11:07;6.80;;;5.35;;
17596;SDS011;8917;50.942;6.946;2023-06-14T00:13:36;5.93;;;5.40;;
17596;SDS011;8917;50.942;6.946;2023-06-14T00:16:03;7.85;;;5.25;;
17596;SDS011;8917;50.942;6.946;2023-06-14T00:18:30;5.45;;;4.95;;
17596;SDS011;8917;50.942;6.946;2023-06-14T00:20:58;6.00;;;4.95;;
17596;SDS011;8917;50.942;6.946;2023-06-14T00:23:27;5.97;;;5.47;;
17596;SDS011;8917;50.942;6.946;2023-06-14T00:25:54;6.38;;;5.30;;
17596;SDS011;8917;50.942;6.946;2023-06-14T00:28:21;7.68;;;5.60;;
17596;SDS011;8917;50.942;6.946;2023-06-14T00:30:50;6.05;;;5.53;;
17596;SDS011;8917;50.942;6.946;2023-06-14T00:33:17;6.68;;;4.80;;
17596;SDS011;8917;50.942;6.946;2023-06-14T00:35:44;8.60;;;5.35;;
17596;SDS011;8917;50.942;6.946;2023-06-14T00:38:12;7.07;;;5.25;;
17596;SDS011;8917;50.942;6.946;2023-06-14T00:40:39;5.60;;;5.10;;
17596;SDS011;8917;50.942;6.946;2023-06-14T00:43:06;5.80;;;5.20;;
17596;SDS011;8917;50.942;6.946;2023-06-14T00:45:33;5.80;;;5.30;;
17596;SDS011;8917;50.942;6.946;2023-06-14T00:48:02;5.85;;;5.35;;
17596;SDS011;8917;50.942;6.946;2023-06-14T00:50:31;5.75;;;5.15;;
17596;SDS011;8917;50.942;6.946;2023-06-14T00:52:59;9.27;;;5.75;;
17596;SDS011;8917;50.942;6.946;2023-06-14T00:55:26;6.30;;;5.70;;
17596;SDS011;8917;50.942;6.946;2023-06-14T00:57:53;5.82;;;5.30;;
17596;SDS011;8917;50.942;6.946;2023-06-14T01:00:21;8.00;;;5.57;;
17596;SDS011;8917;50.942;6.946;2023-06-14T01:02:48;6.70;;;5.43;;
17596;SDS011;8917;50.942;6.946;2023-06-14T01:05:17;7.45;;;6.00;;
17596;SDS011;8917;50.942;6.946;2023-06-14T01:07:51;6.15;;;5.07;;
17596;SDS011;8917;50.942;6.946;2023-06-14T01:10:27;6.40;;;5.80;;
17596;SDS011;8917;50.942;6.946;2023-06-14T01:12:58;6.82;;;5.45;;
17596;SDS011;8917;50.942;6.946;2023-06-14T01:15:26;6.32;;;5.47;;
17596;SDS011;8917;50.942;6.946;2023-06-14T01:17:54;6.35;;;5.60;;
17596;SDS011;8917;50.942;6.946;2023-06-14T01:20:26;5.93;;;5.32;;
17596;SDS011;8917;50.942;6.946;2023-06-14T01:22:57;5.65;;;5.15;;
17596;SDS011;8917;50.942;6.946;2023-06-14T01:25:24;8.40;;;5.60;;
17596;SDS011;8917;50.942;6.946;2023-06-14T01:27:55;6.22;;;5.63;;
17596;SDS011;8917;50.942;6.946;2023-06-14T01:30:24;6.60;;;5.90;;
17596;SDS011;8917;50.942;6.946;2023-06-14T01:32:51;7.65;;;6.65;;
17596;SDS011;8917;50.942;6.946;2023-06-14T01:35:19;7.40;;;6.05;;
17596;SDS011;8917;50.942;6.946;2023-06-14T01:37:47;5.95;;;5.35;;
17596;SDS011;8917;50.942;6.946;2023-06-14T01:40:16;6.22;;;5.63;;
17596;SDS011;8917;50.942;6.946;2023-06-14T01:42:44;6.20;;;5.65;;
17596;SDS011;8917;50.942;6.946;2023-06-14T01:45:13;6.50;;;5.90;;
17596;SDS011;8917;50.942;6.946;2023-06-14T01:47:40;6.32;;;5.72;;
17596;SDS011;8917;50.942;6.946;2023-06-14T01:50:08;6.38;;;5.78;;
17596;SDS011;8917;50.942;6.946;2023-06-14T01:52:36;6.20;;;5.38;;
17596;SDS011;8917;50.942;6.946;2023-06-14T01:55:03;6.07;;;5.45;;
17596;SDS011;8917;50.942;6.946;2023-06-14T01:57:32;6.13;;;5.47;;
17596;SDS011;8917;50.942;6.946;2023-06-14T01:59:59;6.95;;;5.93;;
17596;SDS011;8917;50.942;6.946;2023-06-14T02:02:28;5.47;;;4.97;;
17596;SDS011;8917;50.942;6.946;2023-06-14T02:04:55;6.03;;;5.53;;
17596;SDS011;8917;50.942;6.946;2023-06-14T02:07:23;8.57;;;5.32;;
17596;SDS011;8917;50.942;6.946;2023-06-14T02:09:50;5.95;;;5.00;;
17596;SDS011;8917;50.942;6.946;2023-06-14T02:12:17;5.95;;;5.13;;
17596;SDS011;8917;50.942;6.946;2023-06-14T02:14:46;7.45;;;5.53;;
17596;SDS011;8917;50.942;6.946;2023-06-14T02:17:14;5.55;;;4.97;;
17596;SDS011;8917;50.942;6.946;2023-06-14T02:19:41;5.32;;;4.70;;
17596;SDS011;8917;50.942;6.946;2023-06-14T02:22:08;5.50;;;4.63;;
17596;SDS011;8917;50.942;6.946;2023-06-14T02:24:36;5.70;;;4.80;;
17596;SDS011;8917;50.942;6.946;2023-06-14T02:27:04;5.45;;;4.88;;
17596;SDS011;8917;50.942;6.946;2023-06-14T02:29:31;5.43;;;4.90;;
17596;SDS011;8917;50.942;6.946;2023-06-14T02:32:00;7.45;;;5.18;;
17596;SDS011;8917;50.942;6.946;2023-06-14T02:34:27;6.53;;;4.90;;
17596;SDS011;8917;50.942;6.946;2023-06-14T02:36:54;6.55;;;5.05;;
17596;SDS011;8917;50.942;6.946;2023-06-14T02:39:22;7.10;;;5.07;;
17596;SDS011;8917;50.942;6.946;2023-06-14T02:41:49;5.05;;;4.55;;
17596;SDS011;8917;50.942;6.946;2023-06-14T02:44:17;6.18;;;4.60;;
17596;SDS011;8917;50.942;6.946;2023-06-14T02:46:44;6.10;;;4.95;;
17596;SDS011;8917;50.942;6.946;2023-06-14T02:49:13;5.32;;;4.82;;
17596;SDS011;8917;50.942;6.946;2023-06-14T02:51:40;7.13;;;5.05;;
17596;SDS011;8917;50.942;6.946;2023-06-14T02:54:07;7.35;;;5.22;;
17596;SDS011;8917;50.942;6.946;2023-06-14T02:56:37;6.20;;;4.78;;
17596;SDS011;8917;50.942;6.946;2023-06-14T02:59:04;5.78;;;5.28;;
17596;SDS011;8917;50.942;6.946;2023-06-14T03:01:32;4.93;;;4.53;;
17596;SDS011;8917;50.942;6.946;2023-06-14T03:04:00;5.88;;;4.72;;
17596;SDS011;8917;50.942;6.946;2023-06-14T03:06:29;5.63;;;5.13;;
17596;SDS011;8917;50.942;6.946;2023-06-14T03:08:57;6.90;;;4.85;;
17596;SDS011;8917;50.942;6.946;2023-06-14T03:11:26;5.38;;;4.88;;
17596;SDS011;8917;50.942;6.946;2023-06-14T03:13:53;5.47;;;4.88;;
17596;SDS011;8917;50.942;6.946;2023-06-14T03:16:21;8.38;;;4.82;;
17596;SDS011;8917;50.942;6.946;2023-06-14T03:18:49;5.10;;;4.60;;
17596;SDS011;8917;50.942;6.946;2023-06-14T03:21:16;4.68;;;4.28;;
17596;SDS011;8917;50.942;6.946;2023-06-14T03:23:46;4.95;;;4.45;;
17596;SDS011;8917;50.942;6.946;2023-06-14T03:26:13;7.07;;;4.43;;
17596;SDS011;8917;50.942;6.946;2023-06-14T03:28:43;6.18;;;5.03;;
17596;SDS011;8917;50.942;6.946;2023-06-14T03:31:10;5.93;;;5.32;;
17596;SDS011;8917;50.942;6.946;2023-06-14T03:33:37;5.82;;;4.65;;
17596;SDS011;8917;50.942;6.946;2023-06-14T03:36:04;7.25;;;5.38;;
17596;SDS011;8917;50.942;6.946;2023-06-14T03:38:32;8.13;;;4.95;;
17596;SDS011;8917;50.942;6.946;2023-06-14T03:41:01;6.82;;;4.50;;
17596;SDS011;8917;50.942;6.946;2023-06-14T03:43:28;5.60;;;4.50;;
17596;SDS011;8917;50.942;6.946;2023-06-14T03:45:56;4.75;;;4.25;;
17596;SDS011;8917;50.942;6.946;2023-06-14T03:48:23;8.07;;;4.97;;
17596;SDS011;8917;50.942;6.946;2023-06-14T03:50:51;6.05;;;4.60;;
17596;SDS011;8917;50.942;6.946;2023-06-14T03:53:19;6.30;;;4.40;;
17596;SDS011;8917;50.942;6.946;2023-06-14T03:55:50;4.55;;;4.15;;
17596;SDS011;8917;50.942;6.946;2023-06-14T03:58:20;6.55;;;5.18;;
17596;SDS011;8917;50.942;6.946;2023-06-14T04:00:47;4.78;;;4.35;;
17596;SDS011;8917;50.942;6.946;2023-06-14T04:03:14;5.38;;;4.50;;
17596;SDS011;8917;50.942;6.946;2023-06-14T04:05:42;6.70;;;4.97;;
17596;SDS011;8917;50.942;6.946;2023-06-14T04:08:09;8.25;;;4.90;;
17596;SDS011;8917;50.942;6.946;2023-06-14T04:10:39;5.40;;;4.50;;
17596;SDS011;8917;50.942;6.946;2023-06-14T04:13:07;5.03;;;4.50;;
17596;SDS011;8917;50.942;6.946;2023-06-14T04:15:38;5.95;;;5.00;;
17596;SDS011;8917;50.942;6.946;2023-06-14T04:18:08;4.78;;;4.38;;
17596;SDS011;8917;50.942;6.946;2023-06-14T04:20:36;6.18;;;4.97;;
17596;SDS011;8917;50.942;6.946;2023-06-14T04:23:12;8.95;;;5.10;;
17596;SDS011;8917;50.942;6.946;2023-06-14T04:25:40;6.43;;;4.57;;
17596;SDS011;8917;50.942;6.946;2023-06-14T04:28:10;4.18;;;3.78;;
17596;SDS011;8917;50.942;6.946;2023-06-14T04:30:38;4.45;;;4.05;;
17596;SDS011;8917;50.942;6.946;2023-06-14T04:33:05;4.88;;;4.47;;
17596;SDS011;8917;50.942;6.946;2023-06-14T04:35:33;7.32;;;4.18;;
17596;SDS011;8917;50.942;6.946;2023-06-14T04:38:02;4.75;;;3.75;;
17596;SDS011;8917;50.942;6.946;2023-06-14T04:40:34;5.97;;;3.90;;
17596;SDS011;8917;50.942;6.946;2023-06-14T04:43:07;4.55;;;4.00;;
17596;SDS011;8917;50.942;6.946;2023-06-14T04:45:39;5.53;;;4.47;;
17596;SDS011;8917;50.942;6.946;2023-06-14T04:48:10;4.45;;;3.88;;
17596;SDS011;8917;50.942;6.946;2023-06-14T04:50:40;6.25;;;4.20;;
17596;SDS011;8917;50.942;6.946;2023-06-14T04:53:08;5.30;;;4.30;;
17596;SDS011;8917;50.942;6.946;2023-06-14T04:55:36;5.07;;;3.88;;
17596;SDS011;8917;50.942;6.946;2023-06-14T04:58:03;4.53;;;3.95;;
17596;SDS011;8917;50.942;6.946;2023-06-14T05:00:33;4.22;;;3.78;;
17596;SDS011;8917;50.942;6.946;2023-06-14T05:03:04;5.00;;;4.38;;
17596;SDS011;8917;50.942;6.946;2023-06-14T05:05:31;5.97;;;4.13;;
17596;SDS011;8917;50.942;6.946;2023-06-14T05:07:59;4.43;;;4.03;;
17596;SDS011;8917;50.942;6.946;2023-06-14T05:10:26;7.00;;;3.67;;
17596;SDS011;8917;50.942;6.946;2023-06-14T05:12:53;5.47;;;4.13;;
17596;SDS011;8917;50.942;6.946;2023-06-14T05:15:20;6.78;;;4.68;;
17596;SDS011;8917;50.942;6.946;2023-06-14T05:17:50;5.80;;;4.05;;
17596;SDS011;8917;50.942;6.946;2023-06-14T05:20:21;7.07;;;4.70;;
17596;SDS011;8917;50.942;6.946;2023-06-14T05:22:49;5.57;;;4.40;;
17596;SDS011;8917;50.942;6.946;2023-06-14T05:25:18;5.85;;;4.45;;
17596;SDS011;8917;50.942;6.946;2023-06-14T05:27:45;4.53;;;4.00;;
17596;SDS011;8917;50.942;6.946;2023-06-14T05:30:12;4.18;;;3.78;;
17596;SDS011;8917;50.942;6.946;2023-06-14T05:32:40;5.80;;;4.40;;
17596;SDS011;8917;50.942;6.946;2023-06-14T05:35:07;7.65;;;3.97;;
17596;SDS011;8917;50.942;6.946;2023-06-14T05:37:37;6.25;;;4.40;;
17596;SDS011;8917;50.942;6.946;2023-06-14T05:40:05;4.80;;;3.88;;
17596;SDS011;8917;50.942;6.946;2023-06-14T05:42:34;4.90;;;4.05;;
17596;SDS011;8917;50.942;6.946;2023-06-14T05:45:01;5.50;;;3.97;;
17596;SDS011;8917;50.942;6.946;2023-06-14T05:47:28;5.45;;;4.00;;
17596;SDS011;8917;50.942;6.946;2023-06-14T05:49:55;5.88;;;4.20;;
17596;SDS011;8917;50.942;6.946;2023-06-14T05:52:22;6.18;;;3.88;;
17596;SDS011;8917;50.942;6.946;2023-06-14T05:54:51;9.40;;;4.28;;
17596;SDS011;8917;50.942;6.946;2023-06-14T05:57:19;5.07;;;3.85;;
17596;SDS011;8917;50.942;6.946;2023-06-14T05:59:46;6.53;;;4.10;;
17596;SDS011;8917;50.942;6.946;2023-06-14T06:02:13;4.40;;;3.70;;
17596;SDS011;8917;50.942;6.946;2023-06-14T06:04:40;6.60;;;3.97;;
17596;SDS011;8917;50.942;6.946;2023-06-14T06:07:08;5.97;;;4.32;;
17596;SDS011;8917;50.942;6.946;2023-06-14T06:09:35;4.35;;;3.95;;
17596;SDS011;8917;50.942;6.946;2023-06-14T06:12:04;8.23;;;4.05;;
17596;SDS011;8917;50.942;6.946;2023-06-14T06:14:32;5.22;;;3.90;;
17596;SDS011;8917;50.942;6.946;2023-06-14T06:16:59;5.90;;;4.13;;
17596;SDS011;8917;50.942;6.946;2023-06-14T06:19:26;3.72;;;3.30;;
17596;SDS011;8917;50.942;6.946;2023-06-14T06:21:53;3.35;;;3.03;;
17596;SDS011;8917;50.942;6.946;2023-06-14T06:24:21;9.10;;;5.07;;
17596;SDS011;8917;50.942;6.946;2023-06-14T06:26:48;5.72;;;4.78;;
17596;SDS011;8917;50.942;6.946;2023-06-14T06:29:16;4.30;;;3.80;;
17596;SDS011;8917;50.942;6.946;2023-06-14T06:31:44;6.05;;;3.40;;
17596;SDS011;8917;50.942;6.946;2023-06-14T06:34:11;4.97;;;4.38;;
17596;SDS011;8917;50.942;6.946;2023-06-14T06:36:38;4.00;;;3.45;;
17596;SDS011;8917;50.942;6.946;2023-06-14T06:39:06;5.45;;;4.03;;
17596;SDS011;8917;50.942;6.946;2023-06-14T06:41:35;4.22;;;3.55;;
17596;SDS011;8917;50.942;6.946;2023-06-14T06:44:04;3.55;;;3.20;;
17596;SDS011;8917;50.942;6.946;2023-06-14T06:46:33;4.05;;;3.53;;
17596;SDS011;8917;50.942;6.946;2023-06-14T06:49:05;5.28;;;3.50;;
17596;SDS011;8917;50.942;6.946;2023-06-14T06:51:32;5.95;;;3.65;;
17596;SDS011;8917;50.942;6.946;2023-06-14T06:53:59;5.00;;;3.17;;
17596;SDS011;8917;50.942;6.946;2023-06-14T06:56:27;5.07;;;3.85;;
17596;SDS011;8917;50.942;6.946;2023-06-14T06:58:54;6.30;;;3.40;;
17596;SDS011;8917;50.942;6.946;2023-06-14T07:01:21;5.97;;;3.20;;
17596;SDS011;8917;50.942;6.946;2023-06-14T07:03:50;6.50;;;3.50;;
17596;SDS011;8917;50.942;6.946;2023-06-14T07:06:18;3.80;;;3.10;;
17596;SDS011;8917;50.942;6.946;2023-06-14T07:08:45;4.35;;;2.60;;
17596;SDS011;8917;50.942;6.946;2023-06-14T07:11:13;6.78;;;2.97;;
17596;SDS011;8917;50.942;6.946;2023-06-14T07:13:40;4.47;;;2.90;;
17596;SDS011;8917;50.942;6.946;2023-06-14T07:16:07;3.92;;;3.30;;
17596;SDS011;8917;50.942;6.946;2023-06-14T07:18:35;4.85;;;3.67;;
17596;SDS011;8917;50.942;6.946;2023-06-14T07:21:04;5.07;;;3.47;;
17596;SDS011;8917;50.942;6.946;2023-06-14T07:23:31;4.97;;;3.30;;
17596;SDS011;8917;50.942;6.946;2023-06-14T07:25:58;3.95;;;3.22;;
17596;SDS011;8917;50.942;6.946;2023-06-14T07:28:25;6.57;;;3.45;;
17596;SDS011;8917;50.942;6.946;2023-06-14T07:30:52;4.03;;;3.10;;
17596;SDS011;8917;50.942;6.946;2023-06-14T07:33:20;3.67;;;2.90;;
17596;SDS011;8917;50.942;6.946;2023-06-14T07:35:47;4.20;;;3.20;;
17596;SDS011;8917;50.942;6.946;2023-06-14T07:38:16;5.68;;;2.88;;
17596;SDS011;8917;50.942;6.946;2023-06-14T07:40:44;4.60;;;3.28;;
17596;SDS011;8917;50.942;6.946;2023-06-14T07:43:11;3.47;;;3.00;;
17596;SDS011;8917;50.942;6.946;2023-06-14T07:45:38;5.93;;;2.97;;
17596;SDS011;8917;50.942;6.946;2023-06-14T07:48:05;3.25;;;2.42;;
17596;SDS011;8917;50.942;6.946;2023-06-14T07:50:33;4.85;;;2.67;;
17596;SDS011;8917;50.942;6.946;2023-06-14T07:53:00;4.35;;;2.70;;
17596;SDS011;8917;50.942;6.946;2023-06-14T07:55:28;2.80;;;2.50;;
17596;SDS011;8917;50.942;6.946;2023-06-14T07:57:57;3.72;;;3.05;;
17596;SDS011;8917;50.942;6.946;2023-06-14T08:00:25;3.60;;;2.35;;
17596;SDS011;8917;50.942;6.946;2023-06-14T08:02:52;2.63;;;2.30;;
17596;SDS011;8917;50.942;6.946;2023-06-14T08:05:23;2.78;;;2.30;;
17596;SDS011;8917;50.942;6.946;2023-06-14T08:07:51;3.70;;;2.50;;
17596;SDS011;8917;50.942;6.946;2023-06-14T08:10:18;4.00;;;2.20;;
17596;SDS011;8917;50.942;6.946;2023-06-14T08:12:47;5.63;;;2.40;;
17596;SDS011;8917;50.942;6.946;2023-06-14T08:15:15;2.97;;;2.20;;
17596;SDS011;8917;50.942;6.946;2023-06-14T08:17:42;3.20;;;2.13;;
17596;SDS011;8917;50.942;6.946;2023-06-14T08:20:10;3.85;;;2.00;;
17596;SDS011;8917;50.942;6.946;2023-06-14T08:22:38;4.18;;;1.90;;
17596;SDS011;8917;50.942;6.946;2023-06-14T08:25:07;2.10;;;1.80;;
17596;SDS011;8917;50.942;6.946;2023-06-14T08:27:35;2.83;;;2.03;;
17596;SDS011;8917;50.942;6.946;2023-06-14T08:30:04;2.58;;;2.05;;
17596;SDS011;8917;50.942;6.946;2023-06-14T08:32:32;2.55;;;1.95;;
17596;SDS011;8917;50.942;6.946;2023-06-14T08:35:00;6.20;;;5.38;;
17596;SDS011;8917;50.942;6.946;2023-06-14T08:37:27;2.63;;;2.25;;
17596;SDS011;8917;50.942;6.946;2023-06-14T08:39:54;3.67;;;2.10;;
17596;SDS011;8917;50.942;6.946;2023-06-14T08:42:22;3.17;;;1.90;;
17596;SDS011;8917;50.942;6.946;2023-06-14T08:44:51;2.40;;;2.10;;
17596;SDS011;8917;50.942;6.946;2023-06-14T08:47:19;2.08;;;1.95;;
17596;SDS011;8917;50.942;6.946;2023-06-14T08:49:47;4.95;;;2.03;;
17596;SDS011;8917;50.942;6.946;2023-06-14T08:52:14;1.90;;;1.80;;
17596;SDS011;8917;50.942;6.946;2023-06-14T08:54:43;2.50;;;2.00;;
17596;SDS011;8917;50.942;6.946;2023-06-14T08:57:14;2.42;;;2.00;;
17596;SDS011;8917;50.942;6.946;2023-06-14T08:59:45;3.53;;;2.20;;
17596;SDS011;8917;50.942;6.946;2023-06-14T09:02:14;2.45;;;2.03;;
17596;SDS011;8917;50.942;6.946;2023-06-14T09:04:44;2.85;;;1.98;;
17596;SDS011;8917;50.942;6.946;2023-06-14T09:07:11;2.40;;;2.15;;
17596;SDS011;8917;50.942;6.946;2023-06-14T09:09:39;2.22;;;2.03;;
17596;SDS011;8917;50.942;6.946;2023-06-14T09:12:07;3.13;;;1.90;;
17596;SDS011;8917;50.942;6.946;2023-06-14T09:14:36;2.42;;;2.10;;
17596;SDS011;8917;50.942;6.946;2023-06-14T09:17:06;3.13;;;2.00;;
17596;SDS011;8917;50.942;6.946;2023-06-14T09:19:33;2.80;;;1.92;;
17596;SDS011;8917;50.942;6.946;2023-06-14T09:22:04;3.17;;;2.00;;
17596;SDS011;8917;50.942;6.946;2023-06-14T09:24:31;2.63;;;2.30;;
17596;SDS011;8917;50.942;6.946;2023-06-14T09:26:58;5.72;;;1.98;;
17596;SDS011;8917;50.942;6.946;2023-06-14T09:29:25;3.97;;;2.20;;
17596;SDS011;8917;50.942;6.946;2023-06-14T09:31:53;4.22;;;2.50;;
17596;SDS011;8917;50.942;6.946;2023-06-14T09:34:20;1.80;;;1.70;;
17596;SDS011;8917;50.942;6.946;2023-06-14T09:36:48;1.95;;;1.85;;
17596;SDS011;8917;50.942;6.946;2023-06-14T09:39:17;3.10;;;2.20;;
17596;SDS011;8917;50.942;6.946;2023-06-14T09:41:45;2.30;;;2.10;;
17596;SDS011;8917;50.942;6.946;2023-06-14T09:44:12;2.38;;;2.08;;
17596;SDS011;8917;50.942;6.946;2023-06-14T09:46:39;2.42;;;2.22;;
17596;SDS011;8917;50.942;6.946;2023-06-14T09:49:06;2.40;;;2.00;;
17596;SDS011;8917;50.942;6.946;2023-06-14T09:51:33;2.20;;;2.00;;
17596;SDS011;8917;50.942;6.946;2023-06-14T09:54:02;2.85;;;2.15;;
17596;SDS011;8917;50.942;6.946;2023-06-14T09:56:33;1.95;;;1.80;;
17596;SDS011;8917;50.942;6.946;2023-06-14T09:59:01;3.03;;;2.10;;
17596;SDS011;8917;50.942;6.946;2023-06-14T10:01:31;3.60;;;2.20;;
17596;SDS011;8917;50.942;6.946;2023-06-14T10:04:00;2.33;;;2.10;;
17596;SDS011;8917;50.942;6.946;2023-06-14T10:06:29;2.30;;;2.05;;
17596;SDS011;8917;50.942;6.946;2023-06-14T10:08:57;2.45;;;2.25;;
17596;SDS011;8917;50.942;6.946;2023-06-14T10:11:25;2.45;;;2.22;;
17596;SDS011;8917;50.942;6.946;2023-06-14T10:13:53;4.20;;;2.08;;
17596;SDS011;8917;50.942;6.946;2023-06-14T10:16:23;4.47;;;2.45;;
17596;SDS011;8917;50.942;6.946;2023-06-14T10:18:56;2.38;;;2.00;;
17596;SDS011;8917;50.942;6.946;2023-06-14T10:21:28;3.75;;;2.08;;
17596;SDS011;8917;50.942;6.946;2023-06-14T10:24:00;2.33;;;2.10;;
17596;SDS011;8917;50.942;6.946;2023-06-14T10:26:28;2.47;;;2.22;;
17596;SDS011;8917;50.942;6.946;2023-06-14T10:28:58;2.78;;;2.20;;
17596;SDS011;8917;50.942;6.946;2023-06-14T10:31:41;2.30;;;2.10;;
17596;SDS011;8917;50.942;6.946;2023-06-14T10:34:09;4.03;;;2.00;;
17596;SDS011;8917;50.942;6.946;2023-06-14T10:36:37;3.90;;;2.30;;
17596;SDS011;8917;50.942;6.946;2023-06-14T10:39:07;2.53;;;2.00;;
17596;SDS011;8917;50.942;6.946;2023-06-14T10:41:35;4.60;;;2.15;;
17596;SDS011;8917;50.942;6.946;2023-06-14T10:46:52;2.38;;;2.10;;
17596;SDS011;8917;50.942;6.946;2023-06-14T10:49:20;2.28;;;2.10;;
17596;SDS011;8917;50.942;6.946;2023-06-14T10:52:03;4.55;;;2.30;;
17596;SDS011;8917;50.942;6.946;2023-06-14T10:54:31;2.97;;;2.05;;
17596;SDS011;8917;50.942;6.946;2023-06-14T10:56:58;3.83;;;2.55;;
17596;SDS011;8917;50.942;6.946;2023-06-14T10:59:26;2.40;;;2.20;;
17596;SDS011;8917;50.942;6.946;2023-06-14T11:01:57;2.28;;;2.08;;
17596;SDS011;8917;50.942;6.946;2023-06-14T11:04:29;3.22;;;2.10;;
17596;SDS011;8917;50.942;6.946;2023-06-14T11:07:03;2.90;;;2.33;;
17596;SDS011;8917;50.942;6.946;2023-06-14T11:09:51;4.55;;;2.25;;
17596;SDS011;8917;50.942;6.946;2023-06-14T11:12:22;2.90;;;1.65;;
17596;SDS011;8917;50.942;6.946;2023-06-14T11:14:51;3.53;;;2.25;;
17596;SDS011;8917;50.942;6.946;2023-06-14T11:17:20;4.07;;;2.10;;
17596;SDS011;8917;50.942;6.946;2023-06-14T11:19:47;3.22;;;2.03;;
17596;SDS011;8917;50.942;6.946;2023-06-14T11:22:14;3.00;;;2.30;;
17596;SDS011;8917;50.942;6.946;2023-06-14T11:24:42;3.50;;;2.03;;
17596;SDS011;8917;50.942;6.946;2023-06-14T11:27:10;2.45;;;2.13;;
17596;SDS011;8917;50.942;6.946;2023-06-14T11:29:37;3.10;;;2.13;;
17596;SDS011;8917;50.942;6.946;2023-06-14T11:32:06;3.83;;;2.88;;
17596;SDS011;8917;50.942;6.946;2023-06-14T11:34:38;2.25;;;2.05;;
17596;SDS011;8917;50.942;6.946;2023-06-14T11:37:06;4.03;;;2.38;;
17596;SDS011;8917;50.942;6.946;2023-06-14T11:39:33;3.05;;;2.28;;
17596;SDS011;8917;50.942;6.946;2023-06-14T11:42:00;3.42;;;2.17;;
17596;SDS011;8917;50.942;6.946;2023-06-14T11:44:28;2.35;;;2.00;;
17596;SDS011;8917;50.942;6.946;2023-06-14T11:46:56;2.70;;;2.00;;
17596;SDS011;8917;50.942;6.946;2023-06-14T11:49:23;3.88;;;2.20;;
17596;SDS011;8917;50.942;6.946;2023-06-14T11:51:54;3.15;;;2.10;;
17596;SDS011;8917;50.942;6.946;2023-06-14T11:54:21;2.47;;;2.13;;
17596;SDS011;8917;50.942;6.946;2023-06-14T11:56:48;4.75;;;3.72;;
17596;SDS011;8917;50.942;6.946;2023-06-14T11:59:16;4.55;;;2.78;;
17596;SDS011;8917;50.942;6.946;2023-06-14T12:01:43;3.70;;;2.10;;
17596;SDS011;8917;50.942;6.946;2023-06-14T12:04:10;2.42;;;2.20;;
17596;SDS011;8917;50.942;6.946;2023-06-14T12:06:38;4.20;;;2.30;;
17596;SDS011;8917;50.942;6.946;2023-06-14T12:09:07;4.97;;;2.00;;
17596;SDS011;8917;50.942;6.946;2023-06-14T12:11:41;3.90;;;2.60;;
17596;SDS011;8917;50.942;6.946;2023-06-14T12:14:08;2.30;;;2.10;;
17596;SDS011;8917;50.942;6.946;2023-06-14T12:16:37;2.60;;;1.92;;
17596;SDS011;8917;50.942;6.946;2023-06-14T12:19:08;3.17;;;2.20;;
17596;SDS011;8917;50.942;6.946;2023-06-14T12:21:39;2.08;;;1.88;;
17596;SDS011;8917;50.942;6.946;2023-06-14T12:24:08;4.53;;;2.08;;
17596;SDS011;8917;50.942;6.946;2023-06-14T12:26:37;2.75;;;2.30;;
17596;SDS011;8917;50.942;6.946;2023-06-14T12:29:06;3.05;;;1.85;;
17596;SDS011;8917;50.942;6.946;2023-06-14T12:31:33;2.63;;;2.08;;
17596;SDS011;8917;50.942;6.946;2023-06-14T12:34:00;2.20;;;1.92;;
17596;SDS011;8917;50.942;6.946;2023-06-14T12:36:28;2.88;;;1.95;;
17596;SDS011;8917;50.942;6.946;2023-06-14T12:38:56;2.58;;;1.92;;
17596;SDS011;8917;50.942;6.946;2023-06-14T12:41:25;3.50;;;2.13;;
17596;SDS011;8917;50.942;6.946;2023-06-14T12:43:53;3.75;;;2.03;;
17596;SDS011;8917;50.942;6.946;2023-06-14T12:46:20;1.83;;;1.70;;
17596;SDS011;8917;50.942;6.946;2023-06-14T12:48:47;3.45;;;1.90;;
17596;SDS011;8917;50.942;6.946;2023-06-14T12:51:14;4.45;;;1.92;;
17596;SDS011;8917;50.942;6.946;2023-06-14T12:53:42;2.20;;;2.00;;
17596;SDS011;8917;50.942;6.946;2023-06-14T12:56:09;3.17;;;1.80;;
17596;SDS011;8917;50.942;6.946;2023-06-14T12:58:37;3.30;;;1.85;;
17596;SDS011;8917;50.942;6.946;2023-06-14T13:01:05;1.65;;;1.50;;
17596;SDS011;8917;50.942;6.946;2023-06-14T13:03:32;2.38;;;1.70;;
17596;SDS011;8917;50.942;6.946;2023-06-14T13:05:59;3.20;;;1.63;;
17596;SDS011;8917;50.942;6.946;2023-06-14T13:08:26;2.78;;;1.83;;
17596;SDS011;8917;50.942;6.946;2023-06-14T13:10:54;1.80;;;1.70;;
17596;SDS011;8917;50.942;6.946;2023-06-14T13:13:21;2.67;;;1.85;;
17596;SDS011;8917;50.942;6.946;2023-06-14T13:15:50;1.98;;;1.80;;
17596;SDS011;8917;50.942;6.946;2023-06-14T13:18:17;2.42;;;1.80;;
17596;SDS011;8917;50.942;6.946;2023-06-14T13:20:45;2.00;;;1.80;;
17596;SDS011;8917;50.942;6.946;2023-06-14T13:23:12;3.63;;;1.90;;
17596;SDS011;8917;50.942;6.946;2023-06-14T13:25:40;1.73;;;1.60;;
17596;SDS011;8917;50.942;6.946;2023-06-14T13:28:07;3.58;;;2.13;;
17596;SDS011;8917;50.942;6.946;2023-06-14T13:30:34;2.00;;;1.90;;
17596;SDS011;8917;50.942;6.946;2023-06-14T13:33:03;4.00;;;2.15;;
17596;SDS011;8917;50.942;6.946;2023-06-14T13:35:30;4.57;;;2.08;;
17596;SDS011;8917;50.942;6.946;2023-06-14T13:37:58;2.03;;;1.75;;
17596;SDS011;8917;50.942;6.946;2023-06-14T13:40:25;2.85;;;1.90;;
17596;SDS011;8917;50.942;6.946;2023-06-14T13:42:55;2.88;;;1.92;;
17596;SDS011;8917;50.942;6.946;2023-06-14T13:45:22;2.33;;;2.05;;
17596;SDS011;8917;50.942;6.946;2023-06-14T13:47:50;2.90;;;2.10;;
17596;SDS011;8917;50.942;6.946;2023-06-14T13:50:18;4.97;;;1.98;;
17596;SDS011;8917;50.942;6.946;2023-06-14T13:52:46;2.30;;;2.10;;
17596;SDS011;8917;50.942;6.946;2023-06-14T13:55:13;2.85;;;2.35;;
17596;SDS011;8917;50.942;6.946;2023-06-14T13:57:40;4.32;;;2.20;;
17596;SDS011;8917;50.942;6.946;2023-06-14T14:00:08;2.63;;;1.90;;
17596;SDS011;8917;50.942;6.946;2023-06-14T14:02:36;3.03;;;2.35;;
17596;SDS011;8917;50.942;6.946;2023-06-14T14:05:05;2.10;;;1.90;;
17596;SDS011;8917;50.942;6.946;2023-06-14T14:07:33;2.75;;;2.22;;
17596;SDS011;8917;50.942;6.946;2023-06-14T14:10:01;4.72;;;2.30;;
17596;SDS011;8917;50.942;6.946;2023-06-14T14:12:28;4.57;;;2.20;;
17596;SDS011;8917;50.942;6.946;2023-06-14T14:14:55;4.78;;;1.95;;
17596;SDS011;8917;50.942;6.946;2023-06-14T14:17:22;2.20;;;2.00;;
17596;SDS011;8917;50.942;6.946;2023-06-14T14:19:50;2.88;;;2.10;;
17596;SDS011;8917;50.942;6.946;2023-06-14T14:22:17;3.58;;;2.10;;
17596;SDS011;8917;50.942;6.946;2023-06-14T14:24:52;2.50;;;2.22;;
17596;SDS011;8917;50.942;6.946;2023-06-14T14:27:19;3.05;;;1.92;;
17596;SDS011;8917;50.942;6.946;2023-06-14T14:29:47;2.30;;;2.10;;
17596;SDS011;8917;50.942;6.946;2023-06-14T14:32:14;3.47;;;2.30;;
17596;SDS011;8917;50.942;6.946;2023-06-14T14:34:41;2.20;;;2.00;;
17596;SDS011;8917;50.942;6.946;2023-06-14T14:37:11;3.35;;;1.98;;
17596;SDS011;8917;50.942;6.946;2023-06-14T14:39:40;2.97;;;2.00;;
17596;SDS011;8917;50.942;6.946;2023-06-14T14:42:08;2.60;;;2.00;;
17596;SDS011;8917;50.942;6.946;2023-06-14T14:44:36;5.47;;;2.50;;
17596;SDS011;8917;50.942;6.946;2023-06-14T14:47:03;3.47;;;2.28;;
17596;SDS011;8917;50.942;6.946;2023-06-14T14:49:31;3.55;;;2.15;;
17596;SDS011;8917;50.942;6.946;2023-06-14T14:51:58;2.40;;;2.10;;
17596;SDS011;8917;50.942;6.946;2023-06-14T14:54:25;3.28;;;2.20;;
17596;SDS011;8917;50.942;6.946;2023-06-14T14:56:54;2.60;;;2.15;;
17596;SDS011;8917;50.942;6.946;2023-06-14T14:59:22;4.53;;;2.40;;
17596;SDS011;8917;50.942;6.946;2023-06-14T15:01:50;2.88;;;2.10;;
17596;SDS011;8917;50.942;6.946;2023-06-14T15:04:17;6.78;;;2.17;;
17596;SDS011;8917;50.942;6.946;2023-06-14T15:06:44;2.53;;;2.20;;
17596;SDS011;8917;50.942;6.946;2023-06-14T15:09:11;2.58;;;2.17;;